createdAt,value
2018-08-11T00:04:12.313Z,2.30
2018-08-11T00:09:21.781Z,2.30
2018-08-11T00:14:30.752Z,2.27
2018-08-11T00:19:39.619Z,2.70
2018-08-11T00:24:48.251Z,2.37
2018-08-11T00:29:57.323Z,2.33
2018-08-11T00:35:08.197Z,2.17
2018-08-11T00:40:18.780Z,2.10
2018-08-11T00:45:27.649Z,2.33
2018-08-11T00:50:36.748Z,2.10
2018-08-11T00:55:45.700Z,2.60
2018-08-11T01:00:55.072Z,2.17
2018-08-11T01:06:04.105Z,2.23
2018-08-11T01:11:13.191Z,2.90
2018-08-11T01:16:22.386Z,2.40
2018-08-11T01:21:31.928Z,2.40
2018-08-11T01:26:41.405Z,2.67
2018-08-11T01:31:50.608Z,2.43
2018-08-11T01:36:59.984Z,2.50
2018-08-11T01:42:09.195Z,2.83
2018-08-11T01:47:18.658Z,3.03
2018-08-11T01:52:27.975Z,2.77
2018-08-11T01:57:37.386Z,2.47
2018-08-11T02:02:46.144Z,2.80
2018-08-11T02:07:54.885Z,2.80
2018-08-11T02:13:05.187Z,3.07
2018-08-11T02:18:14.291Z,2.90
2018-08-11T02:23:23.279Z,3.03
2018-08-11T02:28:32.288Z,2.73
2018-08-11T02:33:41.915Z,3.23
2018-08-11T02:38:51.571Z,3.03
2018-08-11T02:44:01.755Z,2.93
2018-08-11T02:49:11.244Z,3.20
2018-08-11T02:54:20.396Z,2.47
2018-08-11T02:59:29.394Z,2.60
2018-08-11T03:04:38.756Z,2.83
2018-08-11T03:09:47.629Z,2.80
2018-08-11T03:14:56.493Z,3.10
2018-08-11T03:20:08.528Z,2.87
2018-08-11T03:25:17.769Z,2.90
2018-08-11T03:30:26.872Z,2.90
2018-08-11T03:35:36.009Z,3.27
2018-08-11T03:40:45.186Z,3.43
2018-08-11T03:45:54.496Z,2.97
2018-08-11T03:51:03.704Z,2.60
2018-08-11T03:56:13.264Z,2.60
2018-08-11T04:01:22.173Z,2.30
2018-08-11T04:06:44.462Z,2.27
2018-08-11T04:12:00.532Z,2.03
2018-08-11T04:17:11.105Z,2.30
2018-08-11T04:22:20.571Z,1.90
2018-08-11T04:27:30.068Z,1.97
2018-08-11T04:32:39.282Z,2.30
2018-08-11T04:37:48.819Z,2.10
2018-08-11T04:42:58.170Z,1.87
2018-08-11T04:48:07.465Z,2.00
2018-08-11T04:53:16.398Z,1.87
2018-08-11T04:58:25.931Z,2.27
2018-08-11T05:03:35.512Z,2.60
2018-08-11T05:08:44.725Z,2.13
2018-08-11T05:13:54.172Z,1.93
2018-08-11T05:19:03.059Z,2.53
2018-08-11T05:24:12.228Z,2.60
2018-08-11T05:29:21.188Z,2.27
2018-08-11T05:34:30.546Z,2.70
2018-08-11T05:39:39.603Z,2.67
2018-08-11T05:44:48.257Z,2.47
2018-08-11T05:49:57.740Z,2.97
2018-08-11T05:55:06.835Z,3.00
2018-08-11T06:00:15.920Z,2.80
2018-08-11T06:05:25.196Z,3.10
2018-08-11T06:10:34.513Z,2.50
2018-08-11T06:15:43.159Z,2.77
2018-08-11T06:20:52.399Z,2.47
2018-08-11T06:26:01.584Z,2.10
2018-08-11T06:31:10.406Z,2.63
2018-08-11T06:36:19.922Z,2.70
2018-08-11T06:41:28.938Z,2.30
2018-08-11T06:46:38.108Z,2.07
2018-08-11T06:51:47.708Z,2.27
2018-08-11T06:56:56.552Z,2.27
2018-08-11T07:02:05.999Z,2.30
2018-08-11T07:07:14.859Z,1.80
2018-08-11T07:12:24.308Z,2.20
2018-08-11T07:17:33.249Z,1.73
2018-08-11T07:22:42.191Z,1.80
2018-08-11T07:27:51.864Z,1.47
2018-08-11T07:33:00.537Z,1.77
2018-08-11T07:38:10.052Z,1.60
2018-08-11T07:43:19.530Z,1.00
2018-08-11T07:48:29.248Z,1.50
2018-08-11T07:53:38.075Z,1.27
2018-08-11T07:58:47.445Z,1.13
2018-08-11T08:03:56.582Z,1.10
2018-08-11T08:09:08.145Z,1.10
2018-08-11T08:14:17.689Z,1.20
2018-08-11T08:19:27.411Z,1.50
2018-08-11T08:24:36.382Z,1.10
2018-08-11T08:29:45.458Z,1.20
2018-08-11T08:34:54.999Z,1.10
2018-08-11T08:40:04.241Z,1.23
2018-08-11T08:45:13.317Z,1.30
2018-08-11T08:50:22.906Z,1.13
2018-08-11T08:55:32.416Z,1.57
2018-08-11T09:00:41.574Z,1.10
2018-08-11T09:05:51.060Z,1.20
2018-08-11T09:11:01.988Z,1.30
2018-08-11T09:16:11.258Z,1.17
2018-08-11T09:21:20.757Z,1.40
2018-08-11T09:26:29.859Z,1.60
2018-08-11T09:31:39.147Z,1.50
2018-08-11T09:36:48.304Z,1.37
2018-08-11T09:41:57.396Z,1.47
2018-08-11T09:47:07.025Z,1.50
2018-08-11T09:52:16.688Z,1.63
2018-08-11T09:57:25.693Z,1.83
2018-08-11T10:02:34.757Z,1.30
2018-08-11T10:07:43.810Z,1.60
2018-08-11T10:12:52.459Z,1.43
2018-08-11T10:18:01.325Z,1.50
2018-08-11T10:23:10.678Z,1.30
2018-08-11T10:28:19.256Z,1.60
2018-08-11T10:33:28.500Z,1.20
2018-08-11T10:38:37.704Z,1.20
2018-08-11T10:43:46.547Z,1.00
2018-08-11T10:48:55.808Z,0.60
2018-08-11T10:54:05.457Z,0.80
2018-08-11T10:59:15.225Z,0.60
2018-08-11T11:04:24.788Z,0.93
2018-08-11T11:09:34.070Z,0.90
2018-08-11T11:14:43.403Z,0.90
2018-08-11T11:19:52.374Z,0.80
2018-08-11T11:25:01.540Z,0.60
2018-08-11T11:30:10.648Z,0.80
2018-08-11T11:35:20.351Z,0.80
2018-08-11T11:40:29.791Z,0.90
2018-08-11T11:45:38.583Z,0.50
2018-08-11T11:50:48.695Z,0.83
2018-08-11T11:55:58.053Z,0.83
2018-08-11T12:01:06.936Z,1.03
2018-08-11T12:06:16.903Z,1.10
2018-08-11T12:11:25.602Z,0.73
2018-08-11T12:16:35.171Z,0.93
2018-08-11T12:21:44.498Z,0.80
2018-08-11T12:26:55.083Z,0.90
2018-08-11T12:32:04.651Z,0.80
2018-08-11T12:37:13.660Z,0.90
2018-08-11T12:42:23.020Z,1.00
2018-08-11T12:47:31.829Z,0.77
2018-08-11T12:52:42.535Z,0.83
2018-08-11T12:57:51.565Z,0.70
2018-08-11T13:03:00.370Z,0.77
2018-08-11T13:08:09.831Z,0.70
2018-08-11T13:13:18.945Z,0.90
2018-08-11T13:18:28.256Z,0.97
2018-08-11T13:23:37.144Z,1.07
2018-08-11T13:28:45.856Z,0.73
2018-08-11T13:33:54.992Z,0.80
2018-08-11T13:39:06.988Z,1.10
2018-08-11T13:44:16.025Z,0.80
2018-08-11T13:49:25.741Z,0.80
2018-08-11T13:54:35.299Z,1.10
2018-08-11T13:59:44.203Z,0.90
2018-08-11T14:04:53.269Z,1.00
2018-08-11T14:10:02.458Z,1.10
2018-08-11T14:15:11.669Z,0.83
2018-08-11T14:20:20.652Z,0.97
2018-08-11T14:25:29.617Z,0.80
2018-08-11T14:30:38.280Z,1.00
2018-08-11T14:35:47.579Z,0.93
2018-08-11T14:40:56.521Z,1.07
2018-08-11T14:46:06.279Z,0.90
2018-08-11T14:51:17.392Z,1.27
2018-08-11T14:56:33.668Z,1.30
2018-08-11T15:01:43.102Z,1.30
2018-08-11T15:06:52.751Z,1.00
2018-08-11T15:12:01.959Z,1.37
2018-08-11T15:17:11.142Z,1.23
2018-08-11T15:22:20.380Z,0.90
2018-08-11T15:27:28.973Z,1.03
2018-08-11T15:32:38.477Z,1.10
2018-08-11T15:37:47.691Z,1.10
2018-08-11T15:42:56.406Z,1.20
2018-08-11T15:48:05.694Z,1.23
2018-08-11T15:53:15.054Z,1.27
2018-08-11T15:58:23.963Z,1.00
2018-08-11T16:03:32.698Z,1.10
2018-08-11T16:08:41.776Z,1.00
2018-08-11T16:13:51.182Z,1.80
2018-08-11T16:19:00.772Z,2.83
2018-08-11T16:24:11.719Z,1.60
2018-08-11T16:29:22.164Z,1.50
2018-08-11T16:34:32.348Z,1.00
2018-08-11T16:39:51.627Z,0.90
2018-08-11T16:45:00.806Z,1.07
2018-08-11T16:50:15.325Z,1.10
2018-08-11T16:55:26.446Z,1.03
2018-08-11T17:00:36.820Z,1.50
2018-08-11T17:05:47.297Z,1.80
2018-08-11T17:10:56.722Z,1.83
2018-08-11T17:16:06.686Z,1.70
2018-08-11T17:21:15.942Z,1.23
2018-08-11T17:26:24.264Z,1.57
2018-08-11T17:31:33.301Z,1.17
2018-08-11T17:36:42.742Z,1.60
2018-08-11T17:41:52.208Z,1.60
2018-08-11T17:47:01.765Z,1.40
2018-08-11T17:52:10.748Z,1.03
2018-08-11T17:57:19.533Z,0.93
2018-08-11T18:02:29.017Z,1.10
2018-08-11T18:07:38.331Z,1.30
2018-08-11T18:12:47.909Z,0.83
2018-08-11T18:17:56.972Z,0.90
2018-08-11T18:23:06.603Z,1.00
2018-08-11T18:28:15.717Z,0.80
2018-08-11T18:33:24.449Z,1.40
2018-08-11T18:38:33.565Z,1.00
2018-08-11T18:43:42.738Z,1.30
2018-08-11T18:48:52.205Z,1.03
2018-08-11T18:54:01.156Z,0.80
2018-08-11T18:59:10.589Z,0.90
2018-08-11T19:04:20.822Z,0.77
2018-08-11T19:09:29.932Z,0.77
2018-08-11T19:14:38.798Z,0.70
2018-08-11T19:19:48.564Z,0.47
2018-08-11T19:24:57.656Z,0.93
2018-08-11T19:30:08.164Z,1.00
2018-08-11T19:35:17.946Z,0.77
2018-08-11T19:40:27.273Z,0.83
2018-08-11T19:45:37.190Z,1.00
2018-08-11T19:50:45.767Z,1.00
2018-08-11T19:55:55.724Z,0.70
2018-08-11T20:01:05.989Z,0.70
2018-08-11T20:06:16.236Z,1.00
2018-08-11T20:11:25.308Z,0.80
2018-08-11T20:16:35.212Z,0.93
2018-08-11T20:21:43.849Z,0.50
2018-08-11T20:26:54.225Z,1.50
2018-08-11T20:32:04.419Z,1.00
2018-08-11T20:37:14.127Z,0.80
2018-08-11T20:42:33.735Z,0.60
2018-08-11T20:47:43.714Z,0.70
2018-08-11T20:52:53.289Z,0.73
2018-08-11T20:58:02.335Z,0.90
2018-08-11T21:03:11.339Z,0.80
2018-08-11T21:08:20.422Z,0.60
2018-08-11T21:13:29.203Z,1.20
2018-08-11T21:18:38.311Z,0.80
2018-08-11T21:23:47.957Z,0.67
2018-08-11T21:28:56.747Z,0.70
2018-08-11T21:34:06.248Z,0.90
2018-08-11T21:39:15.289Z,0.87
2018-08-11T21:44:27.917Z,0.90
2018-08-11T21:49:36.690Z,0.87
2018-08-11T21:54:46.820Z,0.70
2018-08-11T22:05:08.593Z,0.83
2018-08-11T22:10:17.554Z,1.03
2018-08-11T22:15:27.136Z,0.90
2018-08-11T22:20:37.530Z,0.70
2018-08-11T22:25:46.920Z,0.83
2018-08-11T22:30:56.768Z,0.90
2018-08-11T22:36:06.406Z,0.67
2018-08-11T22:41:16.039Z,0.87
2018-08-11T22:46:25.203Z,0.77
2018-08-11T22:51:34.329Z,0.77
2018-08-11T22:56:43.255Z,0.70
2018-08-11T23:01:52.398Z,0.70
2018-08-11T23:07:01.884Z,0.80
2018-08-11T23:12:11.649Z,1.00
2018-08-11T23:17:20.537Z,0.90
2018-08-11T23:22:29.750Z,0.80
2018-08-11T23:27:39.519Z,0.87
2018-08-11T23:32:48.365Z,0.60
2018-08-11T23:37:57.568Z,0.73
2018-08-11T23:43:06.632Z,0.80
2018-08-11T23:48:15.664Z,0.80
2018-08-11T23:53:24.924Z,0.80
2018-08-11T23:58:34.304Z,1.10
